createdAt,value
2019-01-28T00:01:30.360Z,98302.41
2019-01-28T00:04:01.227Z,98303.70
2019-01-28T00:06:31.701Z,98306.97
2019-01-28T00:09:02.204Z,98301.52
2019-01-28T00:11:32.836Z,98306.60
2019-01-28T00:14:03.384Z,98307.62
2019-01-28T00:16:33.868Z,98311.81
2019-01-28T00:19:04.564Z,98317.37
2019-01-28T00:21:35.123Z,98316.75
2019-01-28T00:24:05.973Z,98311.21
2019-01-28T00:26:36.512Z,98318.28
2019-01-28T00:29:07.155Z,98316.20
2019-01-28T00:31:37.785Z,98321.61
2019-01-28T00:34:08.329Z,98322.59
2019-01-28T00:36:38.833Z,98328.78
2019-01-28T00:39:11.064Z,98323.29
2019-01-28T00:41:41.627Z,98332.14
2019-01-28T00:44:12.166Z,98331.20
2019-01-28T00:46:42.688Z,98333.81
2019-01-28T00:49:13.238Z,98330.70
2019-01-28T00:51:43.728Z,98327.30
2019-01-28T00:54:14.261Z,98333.12
2019-01-28T00:56:44.832Z,98336.04
2019-01-28T00:59:15.384Z,98341.87
2019-01-28T01:01:45.854Z,98338.29
2019-01-28T01:04:16.412Z,98345.92
2019-01-28T01:06:46.941Z,98340.84
2019-01-28T01:09:17.444Z,98342.01
2019-01-28T01:11:47.981Z,98340.84
2019-01-28T01:14:19.392Z,98343.91
2019-01-28T01:16:50.717Z,98344.70
2019-01-28T01:19:21.232Z,98344.45
2019-01-28T01:21:51.715Z,98344.50
2019-01-28T01:24:22.246Z,98345.25
2019-01-28T01:26:52.779Z,98348.95
2019-01-28T01:29:23.281Z,98354.05
2019-01-28T01:31:53.778Z,98353.72
2019-01-28T01:34:24.289Z,98355.75
2019-01-28T01:36:54.822Z,98353.05
2019-01-28T01:39:25.388Z,98360.23
2019-01-28T01:41:55.881Z,98360.63
2019-01-28T01:44:26.474Z,98362.90
2019-01-28T01:46:57.008Z,98359.31
2019-01-28T01:49:27.535Z,98359.23
2019-01-28T01:51:58.094Z,98353.61
2019-01-28T01:54:28.661Z,98365.82
2019-01-28T01:56:59.199Z,98369.02
2019-01-28T01:59:29.669Z,98364.83
2019-01-28T02:02:00.248Z,98362.87
2019-01-28T02:04:31.163Z,98365.54
2019-01-28T02:07:01.637Z,98367.92
2019-01-28T02:09:32.174Z,98367.67
2019-01-28T02:12:02.667Z,98371.83
2019-01-28T02:14:33.174Z,98373.61
2019-01-28T02:17:03.738Z,98371.97
2019-01-28T02:19:34.282Z,98373.75
2019-01-28T02:22:04.787Z,98378.16
2019-01-28T02:24:35.310Z,98377.05
2019-01-28T02:27:05.832Z,98379.20
2019-01-28T02:29:36.352Z,98378.44
2019-01-28T02:32:06.918Z,98380.72
2019-01-28T02:34:37.408Z,98381.33
2019-01-28T02:37:07.938Z,98383.33
2019-01-28T02:39:38.564Z,98383.14
2019-01-28T02:42:09.093Z,98379.28
2019-01-28T02:44:39.619Z,98379.22
2019-01-28T02:47:10.158Z,98377.37
2019-01-28T02:49:40.655Z,98377.68
2019-01-28T02:52:11.171Z,98375.59
2019-01-28T02:54:41.699Z,98381.41
2019-01-28T02:57:12.199Z,98376.84
2019-01-28T02:59:42.711Z,98386.81
2019-01-28T03:02:13.257Z,98383.03
2019-01-28T03:04:43.798Z,98385.50
2019-01-28T03:07:14.280Z,98390.08
2019-01-28T03:09:44.800Z,98385.00
2019-01-28T03:12:15.327Z,98390.46
2019-01-28T03:14:45.860Z,98379.31
2019-01-28T03:17:16.397Z,98384.91
2019-01-28T03:19:46.912Z,98389.52
2019-01-28T03:22:17.433Z,98390.83
2019-01-28T03:24:47.973Z,98389.54
2019-01-28T03:27:18.479Z,98385.24
2019-01-28T03:29:48.996Z,98386.86
2019-01-28T03:32:19.537Z,98390.97
2019-01-28T03:34:50.203Z,98388.50
2019-01-28T03:37:20.692Z,98383.61
2019-01-28T03:39:51.228Z,98386.55
2019-01-28T03:42:21.753Z,98387.91
2019-01-28T03:44:52.270Z,98386.32
2019-01-28T03:47:22.793Z,98389.92
2019-01-28T03:49:53.311Z,98388.23
2019-01-28T03:52:24.065Z,98383.81
2019-01-28T03:54:54.591Z,98383.38
2019-01-28T03:57:25.129Z,98383.80
2019-01-28T03:59:55.644Z,98383.33
2019-01-28T04:02:26.207Z,98382.41
2019-01-28T04:04:56.704Z,98384.18
2019-01-28T04:07:27.243Z,98381.33
2019-01-28T04:09:57.764Z,98384.77
2019-01-28T04:12:28.258Z,98376.67
2019-01-28T04:14:58.788Z,98381.33
2019-01-28T04:17:29.433Z,98383.66
2019-01-28T04:19:59.937Z,98378.58
2019-01-28T04:22:30.449Z,98377.42
2019-01-28T04:25:01.023Z,98377.80
2019-01-28T04:27:31.568Z,98372.89
2019-01-28T04:30:02.103Z,98376.95
2019-01-28T04:32:32.632Z,98374.62
2019-01-28T04:35:03.168Z,98371.66
2019-01-28T04:37:33.695Z,98371.78
2019-01-28T04:40:04.941Z,98378.18
2019-01-28T04:42:35.567Z,98377.19
2019-01-28T04:45:09.015Z,98371.59
2019-01-28T04:47:39.573Z,98368.39
2019-01-28T04:50:15.781Z,98369.36
2019-01-28T04:52:46.410Z,98377.19
2019-01-28T04:55:17.421Z,98378.77
2019-01-28T04:57:48.146Z,98369.78
2019-01-28T05:00:21.675Z,98376.80
2019-01-28T05:02:52.421Z,98382.41
2019-01-28T05:05:23.057Z,98379.80
2019-01-28T05:07:58.976Z,98376.16
2019-01-28T05:10:29.514Z,98380.91
2019-01-28T05:13:00.057Z,98381.09
2019-01-28T05:15:30.624Z,98383.38
2019-01-28T05:18:01.358Z,98377.47
2019-01-28T05:20:31.953Z,98383.06
2019-01-28T05:23:02.525Z,98384.97
2019-01-28T05:25:33.045Z,98388.83
2019-01-28T05:28:03.558Z,98380.17
2019-01-28T05:30:34.226Z,98383.66
2019-01-28T05:33:04.829Z,98379.41
2019-01-28T05:35:35.335Z,98378.82
2019-01-28T05:38:06.100Z,98380.79
2019-01-28T05:40:36.647Z,98381.81
2019-01-28T05:43:07.337Z,98380.08
2019-01-28T05:45:37.956Z,98378.16
2019-01-28T05:48:08.486Z,98381.71
2019-01-28T05:50:39.023Z,98385.34
2019-01-28T05:53:09.619Z,98382.19
2019-01-28T05:55:40.130Z,98387.91
2019-01-28T05:58:10.711Z,98385.25
2019-01-28T06:00:44.008Z,98391.03
2019-01-28T06:03:14.684Z,98393.22
2019-01-28T06:05:46.640Z,98392.70
2019-01-28T06:08:17.192Z,98388.14
2019-01-28T06:10:47.745Z,98386.93
2019-01-28T06:13:18.320Z,98385.24
2019-01-28T06:15:48.898Z,98385.24
2019-01-28T06:18:19.511Z,98387.52
2019-01-28T06:20:50.006Z,98387.80
2019-01-28T06:23:20.541Z,98393.95
2019-01-28T06:25:51.068Z,98393.58
2019-01-28T06:28:21.606Z,98401.40
2019-01-28T06:30:52.114Z,98398.09
2019-01-28T06:33:22.636Z,98398.55
2019-01-28T06:35:53.128Z,98396.27
2019-01-28T06:38:23.811Z,98406.04
2019-01-28T06:40:54.301Z,98409.31
2019-01-28T06:43:24.853Z,98414.00
2019-01-28T06:45:55.397Z,98411.81
2019-01-28T06:48:25.942Z,98414.08
2019-01-28T06:50:56.458Z,98420.02
2019-01-28T06:53:27.102Z,98422.02
2019-01-28T06:55:57.611Z,98419.97
2019-01-28T06:58:28.161Z,98422.58
2019-01-28T07:00:58.756Z,98420.55
2019-01-28T07:03:29.249Z,98417.09
2019-01-28T07:05:59.774Z,98424.13
2019-01-28T07:08:30.372Z,98421.19
2019-01-28T07:11:00.883Z,98424.13
2019-01-28T07:13:31.383Z,98428.27
2019-01-28T07:16:02.405Z,98434.84
2019-01-28T07:18:32.974Z,98432.92
2019-01-28T07:21:03.477Z,98435.59
2019-01-28T07:23:34.040Z,98434.31
2019-01-28T07:26:04.579Z,98442.19
2019-01-28T07:28:35.105Z,98437.56
2019-01-28T07:31:05.714Z,98447.47
2019-01-28T07:33:36.392Z,98444.53
2019-01-28T07:36:06.902Z,98445.13
2019-01-28T07:38:37.496Z,98451.52
2019-01-28T07:41:08.006Z,98455.17
2019-01-28T07:43:38.585Z,98459.98
2019-01-28T07:46:09.132Z,98455.29
2019-01-28T07:48:39.694Z,98463.31
2019-01-28T07:51:10.292Z,98468.94
2019-01-28T07:53:41.052Z,98469.44
2019-01-28T07:56:11.573Z,98472.38
2019-01-28T07:58:42.108Z,98473.16
2019-01-28T08:01:12.688Z,98481.72
2019-01-28T08:03:43.272Z,98479.56
2019-01-28T08:06:13.963Z,98490.30
2019-01-28T08:08:44.647Z,98483.53
2019-01-28T08:11:15.179Z,98487.78
2019-01-28T08:13:45.674Z,98491.50
2019-01-28T08:16:16.217Z,98492.78
2019-01-28T08:18:46.772Z,98491.61
2019-01-28T08:21:17.287Z,98491.61
2019-01-28T08:23:47.873Z,98495.01
2019-01-28T08:26:18.369Z,98493.88
2019-01-28T08:28:49.000Z,98489.91
2019-01-28T08:31:19.560Z,98492.45
2019-01-28T08:33:50.046Z,98494.15
2019-01-28T08:36:20.642Z,98502.09
2019-01-28T08:38:51.183Z,98496.68
2019-01-28T08:41:21.730Z,98506.28
2019-01-28T08:43:52.259Z,98503.03
2019-01-28T08:46:22.819Z,98514.58
2019-01-28T08:48:53.423Z,98517.30
2019-01-28T08:51:23.942Z,98519.40
2019-01-28T08:53:54.501Z,98515.74
2019-01-28T08:56:25.054Z,98521.94
2019-01-28T08:58:55.539Z,98521.53
2019-01-28T09:01:26.081Z,98525.12
2019-01-28T09:03:56.602Z,98521.59
2019-01-28T09:06:27.153Z,98524.54
2019-01-28T09:08:57.774Z,98522.58
2019-01-28T09:11:28.327Z,98524.60
2019-01-28T09:13:59.024Z,98529.87
2019-01-28T09:16:29.593Z,98535.56
2019-01-28T09:19:00.226Z,98537.51
2019-01-28T09:21:30.784Z,98540.64
2019-01-28T09:24:01.464Z,98535.60
2019-01-28T09:26:32.047Z,98539.07
2019-01-28T09:29:02.612Z,98542.34
2019-01-28T09:31:33.246Z,98549.78
2019-01-28T09:34:03.967Z,98545.92
2019-01-28T09:36:34.532Z,98556.91
2019-01-28T09:39:08.009Z,98557.34
2019-01-28T09:41:38.523Z,98551.07
2019-01-28T09:44:09.122Z,98548.02
2019-01-28T09:46:39.650Z,98552.77
2019-01-28T09:49:10.175Z,98556.02
2019-01-28T09:51:40.709Z,98551.07
2019-01-28T09:54:11.205Z,98563.40
2019-01-28T09:56:41.702Z,98567.23
2019-01-28T09:59:12.194Z,98576.65
2019-01-28T10:01:42.688Z,98571.42
2019-01-28T10:04:13.200Z,98573.03
2019-01-28T10:06:43.693Z,98573.16
2019-01-28T10:09:14.212Z,98578.25
2019-01-28T10:11:44.708Z,98580.72
2019-01-28T10:14:15.193Z,98583.14
2019-01-28T10:16:45.715Z,98584.48
2019-01-28T10:19:16.257Z,98590.31
2019-01-28T10:21:46.751Z,98588.37
2019-01-28T10:24:17.249Z,98591.50
2019-01-28T10:26:47.885Z,98586.64
2019-01-28T10:29:18.387Z,98591.75
2019-01-28T10:31:48.913Z,98596.09
2019-01-28T10:34:19.447Z,98597.56
2019-01-28T10:36:50.020Z,98604.20
2019-01-28T10:39:20.570Z,98605.83
2019-01-28T10:41:51.126Z,98607.47
2019-01-28T10:44:21.619Z,98603.27
2019-01-28T10:46:52.127Z,98605.19
2019-01-28T10:49:22.596Z,98591.87
2019-01-28T10:51:53.125Z,98604.08
2019-01-28T10:54:23.710Z,98598.84
2019-01-28T10:56:54.194Z,98597.86
2019-01-28T10:59:24.695Z,98597.26
2019-01-28T11:01:55.232Z,98597.34
2019-01-28T11:04:25.745Z,98604.17
2019-01-28T11:06:56.249Z,98602.11
2019-01-28T11:09:26.795Z,98608.98
2019-01-28T11:11:57.436Z,98611.48
2019-01-28T11:14:27.969Z,98613.41
2019-01-28T11:16:58.695Z,98615.21
2019-01-28T11:19:29.373Z,98617.04
2019-01-28T11:21:59.909Z,98611.63
2019-01-28T11:24:30.492Z,98611.16
2019-01-28T11:27:01.131Z,98617.42
2019-01-28T11:29:31.752Z,98615.02
2019-01-28T11:32:02.362Z,98614.23
2019-01-28T11:34:33.108Z,98620.44
2019-01-28T11:37:03.647Z,98617.23
2019-01-28T11:39:34.444Z,98614.99
2019-01-28T11:42:05.258Z,98626.23
2019-01-28T11:44:35.882Z,98625.91
2019-01-28T11:47:06.519Z,98626.59
2019-01-28T11:49:37.156Z,98631.23
2019-01-28T11:52:07.617Z,98633.01
2019-01-28T11:54:38.104Z,98641.91
2019-01-28T11:57:08.570Z,98637.28
2019-01-28T11:59:39.067Z,98641.34
2019-01-28T12:02:09.652Z,98645.31
2019-01-28T12:04:40.159Z,98646.89
2019-01-28T12:07:10.629Z,98647.27
2019-01-28T12:09:41.174Z,98652.17
2019-01-28T12:12:11.638Z,98648.57
2019-01-28T12:14:42.169Z,98654.13
2019-01-28T12:17:12.770Z,98656.29
2019-01-28T12:19:43.267Z,98655.24
2019-01-28T12:22:13.755Z,98657.72
2019-01-28T12:24:44.289Z,98662.49
2019-01-28T12:27:14.792Z,98662.07
2019-01-28T12:29:45.249Z,98664.38
2019-01-28T12:32:15.756Z,98666.02
2019-01-28T12:34:46.232Z,98667.91
2019-01-28T12:37:16.743Z,98667.04
2019-01-28T12:39:47.399Z,98665.68
2019-01-28T12:42:17.870Z,98675.52
2019-01-28T12:44:48.370Z,98670.68
2019-01-28T12:47:18.904Z,98671.67
2019-01-28T12:49:49.398Z,98675.70
2019-01-28T12:52:19.868Z,98684.13
2019-01-28T12:54:50.365Z,98684.75
2019-01-28T12:57:20.845Z,98681.76
2019-01-28T12:59:51.365Z,98685.91
2019-01-28T13:02:21.833Z,98685.72
2019-01-28T13:04:52.382Z,98691.73
2019-01-28T13:07:22.951Z,98692.59
2019-01-28T13:09:53.540Z,98698.93
2019-01-28T13:12:24.018Z,98704.55
2019-01-28T13:14:54.562Z,98705.42
2019-01-28T13:17:25.042Z,98710.59
2019-01-28T13:19:55.596Z,98712.34
2019-01-28T13:22:26.054Z,98712.65
2019-01-28T13:24:56.583Z,98718.16
2019-01-28T13:27:27.143Z,98713.52
2019-01-28T13:29:57.624Z,98713.59
2019-01-28T13:32:28.141Z,98717.27
2019-01-28T13:34:58.620Z,98726.00
2019-01-28T13:37:29.245Z,98723.66
2019-01-28T13:39:59.735Z,98727.97
2019-01-28T13:42:30.360Z,98730.20
2019-01-28T13:45:00.886Z,98738.53
2019-01-28T13:47:31.387Z,98742.66
2019-01-28T13:50:01.952Z,98744.44
2019-01-28T13:52:32.465Z,98745.75
2019-01-28T13:55:02.937Z,98752.14
2019-01-28T13:57:33.725Z,98756.16
2019-01-28T14:00:07.466Z,98758.41
2019-01-28T14:02:38.075Z,98769.49
2019-01-28T14:05:09.610Z,98776.66
2019-01-28T14:07:49.019Z,98779.37
2019-01-28T14:10:19.854Z,98780.61
2019-01-28T14:12:50.594Z,98785.97
2019-01-28T14:15:34.453Z,98788.84
2019-01-28T14:18:05.385Z,98790.39
2019-01-28T14:20:36.160Z,98793.73
2019-01-28T14:23:07.112Z,98793.87
2019-01-28T14:25:37.870Z,98793.94
2019-01-28T14:28:10.234Z,98804.52
2019-01-28T14:30:46.976Z,98802.04
2019-01-28T14:33:17.507Z,98814.50
2019-01-28T14:35:48.103Z,98811.84
2019-01-28T14:38:19.021Z,98823.03
2019-01-28T14:40:49.859Z,98818.75
2019-01-28T14:43:20.386Z,98822.03
2019-01-28T14:45:50.971Z,98832.71
2019-01-28T14:48:21.498Z,98833.63
2019-01-28T14:50:52.656Z,98835.45
2019-01-28T14:53:23.336Z,98839.45
2019-01-28T14:55:53.944Z,98849.21
2019-01-28T14:58:24.680Z,98851.28
2019-01-28T15:00:55.322Z,98859.95
2019-01-28T15:03:25.856Z,98860.00
2019-01-28T15:05:56.427Z,98861.31
2019-01-28T15:08:27.003Z,98866.74
2019-01-28T15:10:57.547Z,98868.38
2019-01-28T15:13:28.144Z,98869.56
2019-01-28T15:15:58.754Z,98875.73
2019-01-28T15:18:29.281Z,98876.16
2019-01-28T15:20:59.894Z,98877.52
2019-01-28T15:23:30.555Z,98882.45
2019-01-28T15:26:01.129Z,98879.45
2019-01-28T15:28:31.718Z,98884.50
2019-01-28T15:31:02.346Z,98890.98
2019-01-28T15:33:33.120Z,98888.92
2019-01-28T15:36:03.694Z,98893.22
2019-01-28T15:38:34.277Z,98904.08
2019-01-28T16:11:59.509Z,98952.50
2019-01-28T16:14:36.793Z,98951.32
2019-01-28T16:17:07.571Z,98953.55
2019-01-28T16:19:38.488Z,98957.70
2019-01-28T16:22:09.233Z,98958.26
2019-01-28T16:24:39.854Z,98966.55
2019-01-28T16:27:10.428Z,98967.11
2019-01-28T16:29:41.347Z,98973.99
2019-01-28T16:32:11.401Z,98975.80
2019-01-28T16:34:42.011Z,98978.19
2019-01-28T16:37:12.550Z,98984.00
2019-01-28T16:39:43.159Z,98989.75
2019-01-28T16:42:13.812Z,98987.82
2019-01-28T16:44:44.429Z,98997.45
2019-01-28T16:47:15.262Z,98997.91
2019-01-28T16:49:45.838Z,99007.39
2019-01-28T16:52:16.659Z,99010.31
2019-01-28T16:54:47.344Z,99010.71
2019-01-28T16:57:18.045Z,99010.47
2019-01-28T16:59:48.628Z,99025.06
2019-01-28T17:02:19.382Z,99029.95
2019-01-28T17:04:50.468Z,99037.25
2019-01-28T17:07:21.202Z,99038.23
2019-01-28T17:09:51.839Z,99045.75
2019-01-28T17:12:22.495Z,99050.95
2019-01-28T17:14:53.052Z,99054.14
2019-01-28T17:17:23.910Z,99058.52
2019-01-28T17:19:54.609Z,99062.10
2019-01-28T17:22:25.404Z,99072.41
2019-01-28T17:24:55.928Z,99071.38
2019-01-28T17:27:40.416Z,99080.31
2019-01-28T17:30:33.987Z,99080.66
2019-01-28T17:33:13.411Z,99081.73
2019-01-28T17:35:47.966Z,99098.52
2019-01-28T17:38:27.597Z,99104.11
2019-01-28T17:40:58.232Z,99105.06
2019-01-28T17:43:29.072Z,99109.20
2019-01-28T17:45:59.669Z,99113.25
2019-01-28T17:48:30.287Z,99124.50
2019-01-28T17:51:00.870Z,99129.72
2019-01-28T17:53:31.471Z,99131.02
2019-01-28T17:56:02.080Z,99142.70
2019-01-28T17:58:32.588Z,99132.42
2019-01-28T18:01:03.262Z,99142.56
2019-01-28T18:03:34.237Z,99145.42
2019-01-28T18:06:04.996Z,99148.59
2019-01-28T18:08:35.696Z,99163.98
2019-01-28T18:11:06.941Z,99170.46
2019-01-28T18:13:43.382Z,99171.77
2019-01-28T18:16:14.231Z,99167.26
2019-01-28T18:18:44.920Z,99174.92
2019-01-28T18:21:15.778Z,99180.26
2019-01-28T18:23:52.292Z,99186.88
2019-01-28T18:26:23.408Z,99194.99
2019-01-28T18:28:53.947Z,99198.33
2019-01-28T18:31:24.595Z,99201.14
2019-01-28T18:33:55.192Z,99198.66
2019-01-28T18:36:26.224Z,99208.35
2019-01-28T18:38:56.863Z,99213.31
2019-01-28T18:41:27.593Z,99207.41
2019-01-28T18:43:58.282Z,99200.48
2019-01-28T18:46:28.915Z,99221.84
2019-01-28T18:48:59.628Z,99217.91
2019-01-28T18:51:30.283Z,99221.70
2019-01-28T18:54:01.324Z,99227.22
2019-01-28T18:56:32.427Z,99232.51
2019-01-28T18:59:03.164Z,99239.71
2019-01-28T19:01:33.824Z,99243.96
2019-01-28T19:04:05.249Z,99255.39
2019-01-28T19:06:50.213Z,99260.20
2019-01-28T19:09:33.143Z,99268.99
2019-01-28T19:12:21.574Z,99270.69
2019-01-28T19:15:11.158Z,99284.77
2019-01-28T19:18:08.249Z,99281.28
2019-01-28T19:21:08.111Z,99290.09
2019-01-28T19:23:37.068Z,99293.48
2019-01-28T19:26:08.005Z,99299.86
2019-01-28T19:28:38.812Z,99303.88
2019-01-28T19:31:09.644Z,99318.25
2019-01-28T19:33:40.569Z,99306.70
2019-01-28T19:36:11.858Z,99331.03
2019-01-28T19:38:43.574Z,99329.73
2019-01-28T19:41:14.528Z,99342.06
2019-01-28T19:43:45.335Z,99344.78
2019-01-28T19:46:16.345Z,99350.41
2019-01-28T19:48:47.418Z,99358.89
2019-01-28T19:51:18.226Z,99363.47
2019-01-28T19:53:49.104Z,99370.52
2019-01-28T19:56:19.873Z,99377.98
2019-01-28T19:58:51.099Z,99383.56
2019-01-28T20:01:21.922Z,99389.64
2019-01-28T20:03:56.747Z,99387.23
2019-01-28T20:06:27.340Z,99393.89
2019-01-28T20:09:22.270Z,99400.19
2019-01-28T20:11:53.091Z,99403.20
2019-01-28T20:14:27.406Z,99405.03
2019-01-28T20:16:58.558Z,99415.80
2019-01-28T20:19:30.083Z,99421.84
2019-01-28T20:22:00.978Z,99418.05
2019-01-28T20:24:32.069Z,99429.02
2019-01-28T20:27:02.912Z,99428.08
2019-01-28T20:29:34.936Z,99436.28
2019-01-28T20:32:06.020Z,99440.02
2019-01-28T20:34:43.326Z,99440.02
2019-01-28T20:37:11.878Z,99449.57
2019-01-28T20:39:42.571Z,99461.65
2019-01-28T20:42:15.987Z,99461.84
2019-01-28T20:44:56.165Z,99474.73
2019-01-28T20:47:27.436Z,99473.86
2019-01-28T20:49:58.449Z,99479.25
2019-01-28T20:52:29.191Z,99482.20
2019-01-28T20:55:00.566Z,99483.55
2019-01-28T20:57:32.375Z,99489.11
2019-01-28T21:00:03.333Z,99495.34
2019-01-28T21:02:34.266Z,99498.02
2019-01-28T21:05:05.575Z,99495.08
2019-01-28T21:07:36.339Z,99499.14
2019-01-28T21:10:09.873Z,99497.50
2019-01-28T21:12:40.588Z,99505.71
2019-01-28T21:15:14.213Z,99509.44
2019-01-28T21:17:46.076Z,99505.90
2019-01-28T21:20:18.460Z,99504.51
2019-01-28T21:22:49.764Z,99511.31
2019-01-28T21:25:23.157Z,99512.44
2019-01-28T21:27:54.069Z,99509.11
2019-01-28T21:30:31.517Z,99511.59
2019-01-28T21:33:02.415Z,99506.79
2019-01-28T21:35:52.158Z,99515.22
2019-01-28T21:38:28.393Z,99515.03
2019-01-28T21:43:27.539Z,99525.23
2019-01-28T21:45:58.020Z,99532.84
2019-01-28T21:48:28.516Z,99531.81
2019-01-28T21:50:59.217Z,99534.90
2019-01-28T21:53:29.686Z,99539.28
2019-01-28T21:56:00.177Z,99538.61
2019-01-28T21:58:30.770Z,99545.31
2019-01-28T22:01:01.150Z,99542.08
2019-01-28T22:03:31.731Z,99545.13
2019-01-28T22:06:02.318Z,99548.39
2019-01-28T22:08:32.844Z,99547.94
2019-01-28T22:11:03.494Z,99547.00
2019-01-28T22:13:34.102Z,99544.41
2019-01-28T22:16:04.845Z,99555.72
2019-01-28T22:18:35.359Z,99563.12
2019-01-28T22:21:13.095Z,99567.41
2019-01-28T22:23:44.218Z,99572.95
2019-01-28T22:26:14.709Z,99580.45
2019-01-28T22:28:45.331Z,99576.93
2019-01-28T22:31:15.880Z,99584.45
2019-01-28T22:33:46.440Z,99581.94
2019-01-28T22:36:17.034Z,99585.11
2019-01-28T22:38:48.171Z,99586.21
2019-01-28T22:41:19.003Z,99586.94
2019-01-28T22:43:49.586Z,99593.91
2019-01-28T22:46:20.156Z,99592.41
2019-01-28T22:48:50.769Z,99590.55
2019-01-28T22:51:21.331Z,99597.41
2019-01-28T22:53:51.912Z,99599.23
2019-01-28T22:56:22.434Z,99597.04
2019-01-28T22:58:52.993Z,99595.19
2019-01-28T23:01:30.402Z,99597.30
2019-01-28T23:04:00.921Z,99596.66
2019-01-28T23:06:31.399Z,99598.13
2019-01-28T23:09:01.924Z,99598.77
2019-01-28T23:11:32.463Z,99607.28
2019-01-28T23:14:02.970Z,99608.30
2019-01-28T23:16:33.487Z,99606.80
2019-01-28T23:19:04.023Z,99614.13
2019-01-28T23:21:34.908Z,99622.83
2019-01-28T23:24:08.032Z,99625.23
2019-01-28T23:26:38.573Z,99627.37
2019-01-28T23:29:09.087Z,99627.81
2019-01-28T23:31:39.581Z,99636.44
2019-01-28T23:34:10.290Z,99640.86
2019-01-28T23:36:40.839Z,99644.38
2019-01-28T23:39:11.327Z,99640.94
2019-01-28T23:41:41.891Z,99642.52
2019-01-28T23:44:12.574Z,99637.17
2019-01-28T23:46:43.045Z,99645.95
2019-01-28T23:49:13.572Z,99644.94
2019-01-28T23:51:44.097Z,99647.05
2019-01-28T23:54:14.598Z,99654.17
2019-01-28T23:56:45.135Z,99657.98
2019-01-28T23:59:15.659Z,99659.72
